createdAt,value
2022-09-14T00:01:34.844Z,100063.91
2022-09-14T00:04:11.063Z,100065.34
2022-09-14T00:06:39.015Z,100060.28
2022-09-14T00:09:07.103Z,100067.59
2022-09-14T00:11:36.309Z,100068.44
2022-09-14T00:14:03.970Z,100058.38
2022-09-14T00:16:38.955Z,100067.56
2022-09-14T00:19:25.860Z,100060.81
2022-09-14T00:21:57.914Z,100049.91
2022-09-14T00:24:27.386Z,100055.72
2022-09-14T00:26:54.268Z,100050.94
2022-09-14T00:29:21.207Z,100045.66
2022-09-14T00:31:48.076Z,100038.09
2022-09-14T00:34:17.217Z,100038.47
2022-09-14T00:36:47.651Z,100029.03
2022-09-14T00:39:15.928Z,100018.75
2022-09-14T00:41:46.525Z,100024.63
2022-09-14T00:44:13.495Z,100022.44
2022-09-14T00:46:49.863Z,100022.44
2022-09-14T00:49:52.199Z,100013.28
2022-09-14T00:52:30.010Z,100009.69
2022-09-14T00:55:00.078Z,99998.19
2022-09-14T00:57:32.330Z,99987.34
2022-09-14T01:00:00.059Z,99988.16
2022-09-14T01:02:28.691Z,99984.81
2022-09-14T01:04:56.234Z,99985.81
2022-09-14T01:07:36.936Z,99980.34
2022-09-14T01:10:48.151Z,99973.22
2022-09-14T01:13:36.180Z,99974.06
2022-09-14T01:16:26.214Z,99975.69
2022-09-14T01:19:02.538Z,99968.97
2022-09-14T01:21:34.164Z,99971.69
2022-09-14T01:24:42.442Z,99975.16
2022-09-14T01:27:44.107Z,99965.66
2022-09-14T01:30:21.690Z,99959.13
2022-09-14T01:33:02.166Z,99961.59
2022-09-14T01:35:54.842Z,99956.81
2022-09-14T01:38:37.970Z,99957.78
2022-09-14T01:41:10.643Z,99953.47
2022-09-14T01:43:54.214Z,99961.69
2022-09-14T01:46:30.026Z,99956.28
2022-09-14T01:49:06.264Z,99967.25
2022-09-14T01:51:42.118Z,99967.56
2022-09-14T01:54:20.658Z,99976.63
2022-09-14T01:57:00.312Z,99970.81
2022-09-14T01:59:33.881Z,99962.03
2022-09-14T02:02:16.217Z,99968.88
2022-09-14T02:05:11.540Z,99974.88
2022-09-14T02:07:39.617Z,99971.94
2022-09-14T02:10:11.903Z,99961.50
2022-09-14T02:12:40.691Z,99967.94
2022-09-14T02:15:11.880Z,99960.56
2022-09-14T02:17:40.051Z,99960.56
2022-09-14T02:20:20.973Z,99960.94
2022-09-14T02:22:48.273Z,99964.69
2022-09-14T02:25:15.203Z,99958.94
2022-09-14T02:27:41.940Z,99957.47
2022-09-14T02:30:09.704Z,99967.44
2022-09-14T02:33:08.549Z,99963.44
2022-09-14T02:35:42.355Z,99965.13
2022-09-14T02:38:34.808Z,99962.41
2022-09-14T02:41:23.191Z,99964.00
2022-09-14T02:44:02.379Z,99966.25
2022-09-14T02:46:47.238Z,99954.19
2022-09-14T02:49:41.427Z,99972.50
2022-09-14T02:52:18.980Z,99973.72
2022-09-14T02:54:48.928Z,99969.53
2022-09-14T02:57:16.245Z,99960.34
2022-09-14T02:59:43.270Z,99957.28
2022-09-14T03:02:10.134Z,99956.63
2022-09-14T03:04:36.990Z,99954.66
2022-09-14T03:07:04.109Z,99952.81
2022-09-14T03:09:30.890Z,99953.16
2022-09-14T03:11:57.643Z,99942.69
2022-09-14T03:14:24.672Z,99949.91
2022-09-14T03:16:51.447Z,99941.84
2022-09-14T03:19:18.241Z,99947.19
2022-09-14T03:21:45.072Z,99938.41
2022-09-14T03:24:11.819Z,99943.72
2022-09-14T03:26:39.412Z,99937.00
2022-09-14T03:29:07.288Z,99945.13
2022-09-14T03:31:34.617Z,99942.09
2022-09-14T03:34:02.642Z,99936.88
2022-09-14T03:36:31.882Z,99936.53
2022-09-14T03:39:02.017Z,99929.88
2022-09-14T03:41:29.364Z,99928.88
2022-09-14T03:43:56.371Z,99912.81
2022-09-14T03:46:25.464Z,99911.81
2022-09-14T03:48:54.723Z,99909.94
2022-09-14T03:51:22.251Z,99911.06
2022-09-14T03:53:49.338Z,99908.63
2022-09-14T03:56:19.607Z,99922.22
2022-09-14T03:58:48.583Z,99923.56
2022-09-14T04:01:21.878Z,99927.28
2022-09-14T04:03:49.582Z,99922.22
2022-09-14T04:06:17.731Z,99920.59
2022-09-14T04:08:46.860Z,99922.66
2022-09-14T04:11:23.691Z,99929.84
2022-09-14T04:13:51.819Z,99924.53
2022-09-14T04:16:21.243Z,99925.19
2022-09-14T04:18:48.506Z,99915.88
2022-09-14T04:21:19.852Z,99920.56
2022-09-14T04:24:10.587Z,99914.31
2022-09-14T04:26:34.398Z,99911.50
2022-09-14T04:29:01.350Z,99914.41
2022-09-14T04:31:28.535Z,99919.81
2022-09-14T04:33:57.247Z,99906.47
2022-09-14T04:36:29.484Z,99909.00
2022-09-14T04:39:01.565Z,99909.28
2022-09-14T04:41:30.387Z,99910.28
2022-09-14T04:43:58.376Z,99907.88
2022-09-14T04:46:39.213Z,99909.56
2022-09-14T04:49:08.704Z,99912.63
2022-09-14T04:51:37.707Z,99914.56
2022-09-14T04:54:07.538Z,99920.91
2022-09-14T04:56:37.212Z,99916.41
2022-09-14T04:59:05.860Z,99926.41
2022-09-14T05:01:39.459Z,99924.72
2022-09-14T05:04:08.728Z,99923.31
2022-09-14T05:06:39.447Z,99924.91
2022-09-14T05:09:13.289Z,99929.16
2022-09-14T05:11:40.602Z,99918.22
2022-09-14T05:14:07.620Z,99927.38
2022-09-14T05:16:37.606Z,99917.13
2022-09-14T05:19:08.070Z,99922.34
2022-09-14T05:21:37.232Z,99927.03
2022-09-14T05:24:12.409Z,99912.09
2022-09-14T05:26:39.530Z,99912.09
2022-09-14T05:29:06.475Z,99918.72
2022-09-14T05:31:33.396Z,99918.34
2022-09-14T05:34:00.948Z,99923.03
2022-09-14T05:36:27.789Z,99923.50
2022-09-14T05:38:54.978Z,99919.38
2022-09-14T05:41:22.065Z,99924.41
2022-09-14T05:43:48.878Z,99923.75
2022-09-14T05:46:22.451Z,99921.88
2022-09-14T05:48:51.956Z,99919.44
2022-09-14T05:51:22.698Z,99921.78
2022-09-14T05:53:55.889Z,99921.16
2022-09-14T05:56:25.698Z,99919.44
2022-09-14T05:58:53.503Z,99917.03
2022-09-14T06:01:27.463Z,99929.16
2022-09-14T06:03:57.064Z,99920.06
2022-09-14T06:06:24.706Z,99928.63
2022-09-14T06:08:54.281Z,99928.44
2022-09-14T06:11:25.147Z,99931.41
2022-09-14T06:13:52.818Z,99923.56
2022-09-14T06:16:22.119Z,99918.69
2022-09-14T06:18:50.054Z,99916.59
2022-09-14T06:21:20.613Z,99905.41
2022-09-14T06:23:49.073Z,99910.03
2022-09-14T06:26:17.112Z,99905.91
2022-09-14T06:28:44.465Z,99901.03
2022-09-14T06:31:17.864Z,99891.03
2022-09-14T06:33:46.456Z,99898.84
2022-09-14T06:36:19.671Z,99891.59
2022-09-14T06:38:49.902Z,99901.75
2022-09-14T06:41:20.933Z,99901.75
2022-09-14T06:43:49.039Z,99903.66
2022-09-14T06:46:26.259Z,99901.44
2022-09-14T06:48:58.527Z,99905.22
2022-09-14T06:51:31.240Z,99901.97
2022-09-14T06:54:00.510Z,99906.88
2022-09-14T06:56:40.019Z,99901.25
2022-09-14T06:59:10.567Z,99907.16
2022-09-14T07:01:38.415Z,99906.97
2022-09-14T07:04:06.366Z,99905.59
2022-09-14T07:06:41.987Z,99902.44
2022-09-14T07:09:09.161Z,99904.81
2022-09-14T07:11:36.807Z,99897.75
2022-09-14T07:14:03.690Z,99903.69
2022-09-14T07:16:32.655Z,99900.81
2022-09-14T07:19:03.771Z,99894.34
2022-09-14T07:21:32.825Z,99905.47
2022-09-14T07:23:59.908Z,99909.25
2022-09-14T07:26:31.466Z,99902.59
2022-09-14T07:29:03.721Z,99900.97
2022-09-14T07:31:39.641Z,99909.00
2022-09-14T07:34:06.769Z,99906.06
2022-09-14T07:36:36.053Z,99903.59
2022-09-14T07:39:08.501Z,99898.78
2022-09-14T07:41:36.364Z,99900.69
2022-09-14T07:44:06.724Z,99900.69
2022-09-14T07:46:39.807Z,99903.22
2022-09-14T07:49:08.570Z,99894.66
2022-09-14T07:51:36.956Z,99900.72
2022-09-14T07:54:06.222Z,99903.03
2022-09-14T07:56:35.250Z,99905.75
2022-09-14T07:59:31.293Z,99906.59
2022-09-14T08:01:51.895Z,99892.72
2022-09-14T08:04:19.055Z,99897.34
2022-09-14T08:06:45.824Z,99896.06
2022-09-14T08:09:12.650Z,99896.28
2022-09-14T08:11:39.523Z,99900.22
2022-09-14T08:14:11.951Z,99895.84
2022-09-14T08:16:40.772Z,99890.34
2022-09-14T08:19:15.816Z,99894.75
2022-09-14T08:21:46.884Z,99889.88
2022-09-14T08:24:17.889Z,99888.84
2022-09-14T08:26:46.168Z,99874.13
2022-09-14T08:29:14.906Z,99886.69
2022-09-14T08:31:44.449Z,99883.72
2022-09-14T08:34:12.087Z,99872.78
2022-09-14T08:36:41.664Z,99869.41
2022-09-14T08:39:11.147Z,99881.47
2022-09-14T08:41:43.916Z,99879.53
2022-09-14T08:44:43.515Z,99888.13
2022-09-14T08:47:17.858Z,99887.22
2022-09-14T08:49:48.114Z,99885.88
2022-09-14T08:52:33.142Z,99877.78
2022-09-14T08:55:31.247Z,99889.03
2022-09-14T08:58:37.894Z,99887.69
2022-09-14T09:01:20.519Z,99894.72
2022-09-14T09:04:14.722Z,99897.84
2022-09-14T09:06:58.239Z,99889.16
2022-09-14T09:09:47.155Z,99893.28
2022-09-14T09:12:22.373Z,99886.81
2022-09-14T09:15:00.822Z,99883.44
2022-09-14T09:17:39.414Z,99889.66
2022-09-14T09:20:24.642Z,99889.19
2022-09-14T09:23:12.659Z,99895.13
2022-09-14T09:26:30.643Z,99893.59
2022-09-14T09:29:00.500Z,99903.78
2022-09-14T09:31:36.296Z,99899.88
2022-09-14T09:34:04.074Z,99901.50
2022-09-14T09:36:36.644Z,99908.00
2022-09-14T09:39:05.434Z,99900.03
2022-09-14T09:41:55.810Z,99896.41
2022-09-14T09:44:22.620Z,99905.88
2022-09-14T09:46:54.920Z,99892.22
2022-09-14T09:49:23.367Z,99899.47
2022-09-14T09:51:51.759Z,99903.63
2022-09-14T09:54:25.596Z,99900.50
2022-09-14T09:56:57.272Z,99900.50
2022-09-14T09:59:38.145Z,99902.25
2022-09-14T10:02:34.356Z,99900.19
2022-09-14T10:05:32.658Z,99900.59
2022-09-14T10:08:02.837Z,99904.31
2022-09-14T10:10:36.102Z,99897.97
2022-09-14T10:13:06.557Z,99907.94
2022-09-14T10:15:36.706Z,99908.78
2022-09-14T10:18:12.691Z,99899.84
2022-09-14T10:21:07.468Z,99904.16
2022-09-14T10:23:38.554Z,99900.06
2022-09-14T10:26:14.472Z,99892.69
2022-09-14T10:28:47.942Z,99893.28
2022-09-14T10:31:20.540Z,99888.59
2022-09-14T10:33:54.971Z,99894.66
2022-09-14T10:36:44.069Z,99885.38
2022-09-14T10:39:26.288Z,99894.94
2022-09-14T10:42:00.734Z,99882.22
2022-09-14T10:44:54.764Z,99887.91
2022-09-14T10:47:49.812Z,99886.50
2022-09-14T10:50:41.447Z,99892.16
2022-09-14T10:53:37.401Z,99886.91
2022-09-14T10:56:10.333Z,99889.28
2022-09-14T10:59:24.466Z,99877.44
2022-09-14T11:02:51.237Z,99879.84
2022-09-14T11:05:24.380Z,99883.00
2022-09-14T11:08:19.015Z,99879.84
2022-09-14T11:11:16.461Z,99895.28
2022-09-14T11:14:23.440Z,99892.16
2022-09-14T11:17:24.128Z,99890.22
2022-09-14T11:20:26.221Z,99894.56
2022-09-14T11:23:29.108Z,99897.66
2022-09-14T11:26:07.120Z,99905.88
2022-09-14T11:28:56.787Z,99906.56
2022-09-14T11:31:37.997Z,99906.53
2022-09-14T11:34:20.274Z,99909.00
2022-09-14T11:36:55.181Z,99913.50
2022-09-14T11:39:37.079Z,99910.91
2022-09-14T11:42:19.155Z,99913.41
2022-09-14T11:44:59.163Z,99908.31
2022-09-14T11:47:26.675Z,99912.44
2022-09-14T11:50:20.018Z,99915.16
2022-09-14T11:52:49.388Z,99913.25
2022-09-14T11:55:18.533Z,99909.59
2022-09-14T11:57:47.275Z,99907.38
2022-09-14T12:00:23.908Z,99907.53
2022-09-14T12:03:05.779Z,99909.31
2022-09-14T12:05:34.421Z,99906.22
2022-09-14T12:08:24.747Z,99898.06
2022-09-14T12:11:25.188Z,99905.00
2022-09-14T12:14:27.576Z,99897.28
2022-09-14T12:17:22.613Z,99899.34
2022-09-14T12:19:55.664Z,99906.75
2022-09-14T12:22:34.959Z,99901.00
2022-09-14T12:25:10.897Z,99904.72
2022-09-14T12:27:40.520Z,99894.16
2022-09-14T12:30:41.870Z,99894.63
2022-09-14T12:33:37.504Z,99893.69
2022-09-14T12:36:26.578Z,99902.28
2022-09-14T12:38:53.349Z,99892.16
2022-09-14T12:41:20.219Z,99895.97
2022-09-14T12:43:49.774Z,99892.06
2022-09-14T12:46:22.850Z,99891.34
2022-09-14T12:48:49.808Z,99899.31
2022-09-14T12:51:31.841Z,99882.16
2022-09-14T12:53:58.781Z,99897.63
2022-09-14T12:56:28.611Z,99888.34
2022-09-14T12:59:40.167Z,99880.75
2022-09-14T13:02:59.798Z,99877.25
2022-09-14T13:05:30.219Z,99888.59
2022-09-14T13:07:57.271Z,99877.00
2022-09-14T13:10:37.225Z,99881.41
2022-09-14T13:13:15.497Z,99871.97
2022-09-14T13:16:04.233Z,99876.75
2022-09-14T13:18:37.943Z,99870.84
2022-09-14T13:21:19.098Z,99874.03
2022-09-14T13:23:46.785Z,99875.72
2022-09-14T13:26:21.005Z,99875.13
2022-09-14T13:28:51.979Z,99881.56
2022-09-14T13:31:31.306Z,99874.72
2022-09-14T13:33:59.863Z,99877.34
2022-09-14T13:36:37.431Z,99868.38
2022-09-14T13:39:04.944Z,99877.47
2022-09-14T13:41:32.684Z,99874.78
2022-09-14T13:44:00.553Z,99881.72
2022-09-14T13:46:28.119Z,99866.41
2022-09-14T13:48:55.920Z,99876.19
2022-09-14T13:51:26.463Z,99872.72
2022-09-14T13:53:59.058Z,99870.22
2022-09-14T13:56:31.348Z,99866.03
2022-09-14T13:59:07.337Z,99867.25
2022-09-14T14:01:39.809Z,99870.72
2022-09-14T14:04:23.673Z,99867.00
2022-09-14T14:07:27.687Z,99870.47
2022-09-14T14:09:58.012Z,99867.47
2022-09-14T14:12:39.669Z,99875.78
2022-09-14T14:15:26.449Z,99875.09
2022-09-14T14:17:54.587Z,99871.28
2022-09-14T14:20:24.408Z,99881.66
2022-09-14T14:23:22.235Z,99883.22
2022-09-14T14:25:55.577Z,99875.66
2022-09-14T14:28:30.554Z,99880.69
2022-09-14T14:31:07.876Z,99887.22
2022-09-14T14:33:37.301Z,99884.41
2022-09-14T14:36:09.980Z,99874.88
2022-09-14T14:38:37.227Z,99880.16
2022-09-14T14:41:04.906Z,99879.47
2022-09-14T14:43:32.012Z,99872.13
2022-09-14T14:46:02.067Z,99879.03
2022-09-14T14:48:29.820Z,99883.81
2022-09-14T14:50:56.933Z,99877.47
2022-09-14T14:53:25.343Z,99887.25
2022-09-14T14:55:53.579Z,99890.63
2022-09-14T14:58:22.305Z,99889.50
2022-09-14T15:00:49.924Z,99891.56
2022-09-14T15:03:19.136Z,99885.13
2022-09-14T15:05:48.468Z,99889.88
2022-09-14T15:08:20.023Z,99896.09
2022-09-14T15:10:47.118Z,99888.81
2022-09-14T15:13:14.103Z,99902.75
2022-09-14T15:15:45.118Z,99898.94
2022-09-14T15:18:11.946Z,99894.63
2022-09-14T15:20:39.049Z,99901.34
2022-09-14T15:23:06.235Z,99905.97
2022-09-14T15:25:33.179Z,99912.03
2022-09-14T15:28:00.248Z,99897.88
2022-09-14T15:30:27.433Z,99902.97
2022-09-14T15:32:54.344Z,99907.72
2022-09-14T15:35:21.139Z,99909.13
2022-09-14T15:37:48.648Z,99908.75
2022-09-14T15:40:15.868Z,99909.34
2022-09-14T15:42:43.260Z,99916.00
2022-09-14T15:45:10.889Z,99919.31
2022-09-14T15:47:37.853Z,99917.41
2022-09-14T15:50:06.324Z,99927.41
2022-09-14T15:52:36.915Z,99912.84
2022-09-14T15:55:07.072Z,99919.06
2022-09-14T15:57:34.265Z,99926.19
2022-09-14T16:00:01.370Z,99931.69
2022-09-14T16:02:28.345Z,99938.38
2022-09-14T16:04:55.651Z,99932.53
2022-09-14T16:07:23.951Z,99926.81
2022-09-14T16:09:50.716Z,99927.13
2022-09-14T16:12:17.664Z,99925.94
2022-09-14T16:14:44.523Z,99929.28
2022-09-14T16:17:11.821Z,99929.38
2022-09-14T16:19:39.080Z,99930.63
2022-09-14T16:22:06.250Z,99923.00
2022-09-14T16:24:33.845Z,99929.16
2022-09-14T16:27:01.063Z,99931.06
2022-09-14T16:29:27.855Z,99923.66
2022-09-14T16:31:55.136Z,99927.97
2022-09-14T16:34:29.295Z,99935.34
2022-09-14T16:36:58.973Z,99938.09
2022-09-14T16:39:29.840Z,99932.22
2022-09-14T16:41:57.071Z,99930.69
2022-09-14T16:44:28.683Z,99933.53
2022-09-14T16:46:58.016Z,99935.34
2022-09-14T16:49:27.883Z,99939.13
2022-09-14T16:51:56.510Z,99940.50
2022-09-14T16:54:26.001Z,99941.75
2022-09-14T16:56:57.237Z,99940.50
2022-09-14T16:59:24.426Z,99948.44
2022-09-14T17:01:54.618Z,99940.81
2022-09-14T17:04:23.328Z,99939.69
2022-09-14T17:06:51.928Z,99946.00
2022-09-14T17:09:27.631Z,99958.94
2022-09-14T17:11:55.883Z,99946.63
2022-09-14T17:14:31.071Z,99957.56
2022-09-14T17:16:58.959Z,99957.41
2022-09-14T17:19:27.232Z,99960.75
2022-09-14T17:21:54.964Z,99965.94
2022-09-14T17:24:22.356Z,99963.78
2022-09-14T17:26:49.841Z,99968.66
2022-09-14T17:29:17.352Z,99965.44
2022-09-14T17:31:45.936Z,99951.88
2022-09-14T17:34:16.723Z,99953.31
2022-09-14T17:36:44.881Z,99955.00
2022-09-14T17:39:12.747Z,99957.13
2022-09-14T17:41:41.485Z,99957.13
2022-09-14T17:44:12.671Z,99967.19
2022-09-14T17:46:48.144Z,99965.94
2022-09-14T17:49:18.052Z,99964.63
2022-09-14T17:51:45.473Z,99969.09
2022-09-14T17:54:12.971Z,99963.63
2022-09-14T17:56:40.243Z,99969.81
2022-09-14T17:59:20.844Z,99968.50
2022-09-14T18:01:49.548Z,99976.63
2022-09-14T18:04:16.951Z,99978.53
2022-09-14T18:06:47.392Z,99970.75
2022-09-14T18:09:20.913Z,99987.59
2022-09-14T18:11:50.208Z,99978.13
2022-09-14T18:14:17.638Z,99976.28
2022-09-14T18:16:45.387Z,99979.19
2022-09-14T18:19:12.940Z,99983.81
2022-09-14T18:21:39.918Z,99982.63
2022-09-14T18:24:07.492Z,99979.31
2022-09-14T18:26:34.535Z,99987.91
2022-09-14T18:29:01.354Z,99990.63
2022-09-14T18:31:28.326Z,99994.50
2022-09-14T18:33:59.537Z,100000.78
2022-09-14T18:36:29.422Z,99999.34
2022-09-14T18:39:00.190Z,100004.66
2022-09-14T18:41:34.143Z,100003.44
2022-09-14T18:44:02.014Z,100000.91
2022-09-14T18:46:29.457Z,100016.19
2022-09-14T18:48:59.680Z,100011.84
2022-09-14T18:51:28.567Z,100021.34
2022-09-14T18:54:06.915Z,100019.44
2022-09-14T18:56:36.351Z,100024.06
2022-09-14T18:59:06.722Z,100027.63
2022-09-14T19:01:35.658Z,100019.59
2022-09-14T19:04:05.504Z,100030.34
2022-09-14T19:06:34.484Z,100029.53
2022-09-14T19:09:01.706Z,100030.78
2022-09-14T19:11:30.833Z,100031.66
2022-09-14T19:14:09.477Z,100036.78
2022-09-14T19:16:38.816Z,100038.00
2022-09-14T19:19:07.334Z,100034.00
2022-09-14T19:21:34.386Z,100043.91
2022-09-14T19:24:10.796Z,100037.69
2022-09-14T19:26:48.923Z,100050.28
2022-09-14T19:29:21.563Z,100062.91
2022-09-14T19:31:51.790Z,100054.09
2022-09-14T19:34:20.997Z,100061.25
2022-09-14T19:36:48.535Z,100066.31
2022-09-14T19:39:15.749Z,100073.91
2022-09-14T19:41:42.509Z,100076.81
2022-09-14T19:44:11.332Z,100073.91
2022-09-14T19:46:39.897Z,100083.81
2022-09-14T19:49:13.816Z,100081.88
2022-09-14T19:51:40.904Z,100077.28
2022-09-14T19:54:09.180Z,100080.84
2022-09-14T19:56:36.674Z,100082.75
2022-09-14T19:59:06.211Z,100098.69
2022-09-14T20:01:35.689Z,100095.16
2022-09-14T20:04:04.503Z,100094.53
2022-09-14T20:06:38.287Z,100094.31
2022-09-14T20:09:09.863Z,100102.50
2022-09-14T20:11:39.573Z,100101.00
2022-09-14T20:14:12.462Z,100093.22
2022-09-14T20:16:59.523Z,100097.88
2022-09-14T20:19:29.191Z,100098.94
2022-09-14T20:21:56.663Z,100102.72
2022-09-14T20:24:27.322Z,100112.59
2022-09-14T20:26:58.372Z,100114.72
2022-09-14T20:29:29.362Z,100116.38
2022-09-14T20:31:57.188Z,100123.94
2022-09-14T20:34:24.028Z,100133.63
2022-09-14T20:36:52.656Z,100129.41
2022-09-14T20:39:22.231Z,100131.50
2022-09-14T20:41:49.819Z,100128.16
2022-09-14T20:44:17.149Z,100124.41
2022-09-14T20:46:45.184Z,100129.59
2022-09-14T20:49:15.575Z,100133.63
2022-09-14T20:51:43.127Z,100123.97
2022-09-14T20:54:17.473Z,100131.31
2022-09-14T20:56:46.359Z,100120.38
2022-09-14T20:59:18.763Z,100127.34
2022-09-14T21:01:49.559Z,100129.03
2022-09-14T21:04:23.086Z,100132.38
2022-09-14T21:06:53.000Z,100128.59
2022-09-14T21:09:24.680Z,100129.66
2022-09-14T21:11:53.057Z,100132.19
2022-09-14T21:14:21.052Z,100136.59
2022-09-14T21:16:50.882Z,100138.28
2022-09-14T21:19:24.960Z,100143.75
2022-09-14T21:21:52.429Z,100143.09
2022-09-14T21:24:22.088Z,100138.50
2022-09-14T21:26:48.993Z,100141.66
2022-09-14T21:29:21.002Z,100140.16
2022-09-14T21:31:48.951Z,100135.75
2022-09-14T21:34:16.330Z,100142.91
2022-09-14T21:36:47.000Z,100147.94
2022-09-14T21:39:19.357Z,100139.13
2022-09-14T21:41:46.419Z,100138.91
2022-09-14T21:44:14.158Z,100140.19
2022-09-14T21:46:41.897Z,100137.47
2022-09-14T21:49:18.221Z,100137.06
2022-09-14T21:51:45.109Z,100136.03
2022-09-14T21:54:13.772Z,100141.47
2022-09-14T21:56:44.849Z,100146.28
2022-09-14T21:59:20.145Z,100133.09
2022-09-14T22:01:48.356Z,100134.75
2022-09-14T22:04:19.853Z,100129.06
2022-09-14T22:06:47.571Z,100131.59
2022-09-14T22:09:16.773Z,100134.97
2022-09-14T22:11:43.727Z,100142.75
2022-09-14T22:14:20.462Z,100131.44
2022-09-14T22:16:48.961Z,100135.41
2022-09-14T22:19:21.694Z,100133.53
2022-09-14T22:21:49.554Z,100137.72
2022-09-14T22:24:21.327Z,100139.00
2022-09-14T22:26:50.461Z,100145.69
2022-09-14T22:29:18.875Z,100146.75
2022-09-14T22:31:47.856Z,100144.66
2022-09-14T22:34:16.372Z,100139.00
2022-09-14T22:36:44.030Z,100149.28
2022-09-14T22:39:11.466Z,100144.44
2022-09-14T22:41:39.147Z,100150.97
2022-09-14T22:44:07.495Z,100144.25
2022-09-14T22:46:35.638Z,100153.91
2022-09-14T22:49:02.907Z,100147.59
2022-09-14T22:51:30.531Z,100148.25
2022-09-14T22:53:57.931Z,100150.53
2022-09-14T22:56:29.831Z,100155.13
2022-09-14T22:58:56.816Z,100158.91
2022-09-14T23:01:35.109Z,100165.63
2022-09-14T23:04:10.738Z,100163.09
2022-09-14T23:06:45.488Z,100168.19
2022-09-14T23:09:16.974Z,100162.94
2022-09-14T23:11:44.896Z,100170.91
2022-09-14T23:14:13.734Z,100176.53
2022-09-14T23:16:41.548Z,100177.81
2022-09-14T23:19:08.675Z,100180.31
2022-09-14T23:21:36.022Z,100176.75
2022-09-14T23:24:06.303Z,100178.84
2022-09-14T23:26:34.326Z,100176.53
2022-09-14T23:29:09.278Z,100180.28
2022-09-14T23:31:36.451Z,100173.19
2022-09-14T23:34:05.045Z,100171.94
2022-09-14T23:36:31.967Z,100165.63
2022-09-14T23:38:59.238Z,100170.66
2022-09-14T23:41:27.611Z,100169.81
2022-09-14T23:43:55.068Z,100175.28
2022-09-14T23:46:22.840Z,100169.41
2022-09-14T23:48:50.474Z,100163.13
2022-09-14T23:51:17.685Z,100169.41
2022-09-14T23:53:44.514Z,100175.47
2022-09-14T23:56:11.849Z,100172.75
2022-09-14T23:58:40.272Z,100171.50
